sensor_id;sensor_type;location;lat;lon;timestamp;temperature;humidity
16666;DHT22;8446;50.99880500;6.25021400;2024-03-29T00:02:04;8.30;99.90
16666;DHT22;8446;50.99880500;6.25021400;2024-03-29T00:04:35;8.20;99.90
16666;DHT22;8446;50.99880500;6.25021400;2024-03-29T00:07:05;8.20;99.90
16666;DHT22;8446;50.99880500;6.25021400;2024-03-29T00:09:36;8.20;99.90
16666;DHT22;8446;50.99880500;6.25021400;2024-03-29T00:12:07;8.20;99.90
16666;DHT22;8446;50.99880500;6.25021400;2024-03-29T00:14:37;8.10;99.90
16666;DHT22;8446;50.99880500;6.25021400;2024-03-29T00:17:10;7.80;99.90
16666;DHT22;8446;50.99880500;6.25021400;2024-03-29T00:19:40;7.60;99.90
16666;DHT22;8446;50.99880500;6.25021400;2024-03-29T00:22:11;7.50;99.90
16666;DHT22;8446;50.99880500;6.25021400;2024-03-29T00:24:41;7.20;99.90
16666;DHT22;8446;50.99880500;6.25021400;2024-03-29T00:27:12;6.80;99.90
16666;DHT22;8446;50.99880500;6.25021400;2024-03-29T00:29:42;6.90;99.90
16666;DHT22;8446;50.99880500;6.25021400;2024-03-29T00:32:16;7.00;99.90
16666;DHT22;8446;50.99880500;6.25021400;2024-03-29T00:34:48;6.70;99.90
16666;DHT22;8446;50.99880500;6.25021400;2024-03-29T00:37:20;6.70;99.90
16666;DHT22;8446;50.99880500;6.25021400;2024-03-29T00:39:50;6.80;99.90
16666;DHT22;8446;50.99880500;6.25021400;2024-03-29T00:42:21;6.90;99.90
16666;DHT22;8446;50.99880500;6.25021400;2024-03-29T00:44:52;6.90;99.90
16666;DHT22;8446;50.99880500;6.25021400;2024-03-29T00:47:22;7.00;99.90
16666;DHT22;8446;50.99880500;6.25021400;2024-03-29T00:49:53;7.30;99.90
16666;DHT22;8446;50.99880500;6.25021400;2024-03-29T00:52:24;7.20;99.90
16666;DHT22;8446;50.99880500;6.25021400;2024-03-29T00:54:54;7.20;99.90
16666;DHT22;8446;50.99880500;6.25021400;2024-03-29T00:57:25;7.40;99.90
16666;DHT22;8446;50.99880500;6.25021400;2024-03-29T00:59:55;7.50;99.90
16666;DHT22;8446;50.99880500;6.25021400;2024-03-29T01:02:27;7.50;99.90
16666;DHT22;8446;50.99880500;6.25021400;2024-03-29T01:04:57;7.60;99.90
16666;DHT22;8446;50.99880500;6.25021400;2024-03-29T01:07:28;7.60;99.90
16666;DHT22;8446;50.99880500;6.25021400;2024-03-29T01:09:58;7.60;99.90
16666;DHT22;8446;50.99880500;6.25021400;2024-03-29T01:12:29;7.70;99.90
16666;DHT22;8446;50.99880500;6.25021400;2024-03-29T01:14:59;7.60;99.90
16666;DHT22;8446;50.99880500;6.25021400;2024-03-29T01:17:30;7.70;99.90
16666;DHT22;8446;50.99880500;6.25021400;2024-03-29T01:20:00;7.60;99.90
16666;DHT22;8446;50.99880500;6.25021400;2024-03-29T01:22:31;7.70;99.90
16666;DHT22;8446;50.99880500;6.25021400;2024-03-29T01:25:02;7.70;99.90
16666;DHT22;8446;50.99880500;6.25021400;2024-03-29T01:27:34;7.70;99.90
16666;DHT22;8446;50.99880500;6.25021400;2024-03-29T01:30:05;7.60;99.90
16666;DHT22;8446;50.99880500;6.25021400;2024-03-29T01:32:35;7.60;99.90
16666;DHT22;8446;50.99880500;6.25021400;2024-03-29T01:35:06;7.70;99.90
16666;DHT22;8446;50.99880500;6.25021400;2024-03-29T01:37:37;7.80;99.90
16666;DHT22;8446;50.99880500;6.25021400;2024-03-29T01:40:07;7.90;99.90
16666;DHT22;8446;50.99880500;6.25021400;2024-03-29T01:42:38;7.80;99.90
16666;DHT22;8446;50.99880500;6.25021400;2024-03-29T01:45:09;7.70;99.90
16666;DHT22;8446;50.99880500;6.25021400;2024-03-29T01:47:40;7.80;99.90
16666;DHT22;8446;50.99880500;6.25021400;2024-03-29T01:50:10;7.80;99.90
16666;DHT22;8446;50.99880500;6.25021400;2024-03-29T01:52:41;7.80;99.90
16666;DHT22;8446;50.99880500;6.25021400;2024-03-29T01:55:12;7.90;99.90
16666;DHT22;8446;50.99880500;6.25021400;2024-03-29T01:57:43;8.00;99.90
16666;DHT22;8446;50.99880500;6.25021400;2024-03-29T02:00:14;8.10;99.90
16666;DHT22;8446;50.99880500;6.25021400;2024-03-29T02:02:45;8.10;99.90
16666;DHT22;8446;50.99880500;6.25021400;2024-03-29T02:05:15;8.10;99.90
16666;DHT22;8446;50.99880500;6.25021400;2024-03-29T02:07:46;8.20;99.90
16666;DHT22;8446;50.99880500;6.25021400;2024-03-29T02:10:18;8.30;99.90
16666;DHT22;8446;50.99880500;6.25021400;2024-03-29T02:12:49;8.30;99.90
16666;DHT22;8446;50.99880500;6.25021400;2024-03-29T02:15:19;8.40;99.90
16666;DHT22;8446;50.99880500;6.25021400;2024-03-29T02:17:50;8.40;99.90
16666;DHT22;8446;50.99880500;6.25021400;2024-03-29T02:20:21;8.20;99.90
16666;DHT22;8446;50.99880500;6.25021400;2024-03-29T02:23:07;8.10;99.90
16666;DHT22;8446;50.99880500;6.25021400;2024-03-29T02:25:39;8.20;99.90
16666;DHT22;8446;50.99880500;6.25021400;2024-03-29T02:28:09;8.70;99.90
16666;DHT22;8446;50.99880500;6.25021400;2024-03-29T02:30:40;9.00;99.90
16666;DHT22;8446;50.99880500;6.25021400;2024-03-29T02:33:10;9.10;99.90
16666;DHT22;8446;50.99880500;6.25021400;2024-03-29T02:35:41;9.30;99.90
16666;DHT22;8446;50.99880500;6.25021400;2024-03-29T02:38:11;9.40;99.90
16666;DHT22;8446;50.99880500;6.25021400;2024-03-29T02:40:42;9.50;99.90
16666;DHT22;8446;50.99880500;6.25021400;2024-03-29T02:43:13;9.50;99.90
16666;DHT22;8446;50.99880500;6.25021400;2024-03-29T02:45:43;9.50;99.90
16666;DHT22;8446;50.99880500;6.25021400;2024-03-29T02:48:14;9.50;99.90
16666;DHT22;8446;50.99880500;6.25021400;2024-03-29T02:50:44;9.40;99.90
16666;DHT22;8446;50.99880500;6.25021400;2024-03-29T02:53:15;9.50;99.90
16666;DHT22;8446;50.99880500;6.25021400;2024-03-29T02:55:45;9.40;99.90
16666;DHT22;8446;50.99880500;6.25021400;2024-03-29T02:58:16;9.40;99.90
16666;DHT22;8446;50.99880500;6.25021400;2024-03-29T03:00:46;9.20;99.90
16666;DHT22;8446;50.99880500;6.25021400;2024-03-29T03:03:17;9.20;99.90
16666;DHT22;8446;50.99880500;6.25021400;2024-03-29T03:05:48;9.30;99.90
16666;DHT22;8446;50.99880500;6.25021400;2024-03-29T03:08:18;9.20;99.90
16666;DHT22;8446;50.99880500;6.25021400;2024-03-29T03:11:07;9.10;99.90
16666;DHT22;8446;50.99880500;6.25021400;2024-03-29T03:13:38;9.00;99.90
16666;DHT22;8446;50.99880500;6.25021400;2024-03-29T03:16:08;8.90;99.90
16666;DHT22;8446;50.99880500;6.25021400;2024-03-29T03:18:39;8.80;99.90
16666;DHT22;8446;50.99880500;6.25021400;2024-03-29T03:21:09;8.70;99.90
16666;DHT22;8446;50.99880500;6.25021400;2024-03-29T03:23:40;8.80;99.90
16666;DHT22;8446;50.99880500;6.25021400;2024-03-29T03:26:10;8.80;99.90
16666;DHT22;8446;50.99880500;6.25021400;2024-03-29T03:28:41;8.50;99.90
16666;DHT22;8446;50.99880500;6.25021400;2024-03-29T03:31:11;8.60;99.90
16666;DHT22;8446;50.99880500;6.25021400;2024-03-29T03:33:42;8.50;99.90
16666;DHT22;8446;50.99880500;6.25021400;2024-03-29T03:36:12;8.60;99.90
16666;DHT22;8446;50.99880500;6.25021400;2024-03-29T03:38:43;8.40;99.90
16666;DHT22;8446;50.99880500;6.25021400;2024-03-29T03:41:14;8.40;99.90
16666;DHT22;8446;50.99880500;6.25021400;2024-03-29T03:43:44;8.30;99.90
16666;DHT22;8446;50.99880500;6.25021400;2024-03-29T03:46:15;8.20;99.90
16666;DHT22;8446;50.99880500;6.25021400;2024-03-29T03:48:45;8.10;99.90
16666;DHT22;8446;50.99880500;6.25021400;2024-03-29T03:51:16;8.00;99.90
16666;DHT22;8446;50.99880500;6.25021400;2024-03-29T03:53:46;8.10;99.90
16666;DHT22;8446;50.99880500;6.25021400;2024-03-29T03:56:17;8.00;99.90
16666;DHT22;8446;50.99880500;6.25021400;2024-03-29T03:58:47;7.80;99.90
16666;DHT22;8446;50.99880500;6.25021400;2024-03-29T04:01:18;7.70;99.90
16666;DHT22;8446;50.99880500;6.25021400;2024-03-29T04:03:48;7.70;99.90
16666;DHT22;8446;50.99880500;6.25021400;2024-03-29T04:06:19;7.70;99.90
16666;DHT22;8446;50.99880500;6.25021400;2024-03-29T04:08:50;7.60;99.90
16666;DHT22;8446;50.99880500;6.25021400;2024-03-29T04:11:20;7.50;99.90
16666;DHT22;8446;50.99880500;6.25021400;2024-03-29T04:13:51;7.40;99.90
16666;DHT22;8446;50.99880500;6.25021400;2024-03-29T04:16:21;7.40;99.90
16666;DHT22;8446;50.99880500;6.25021400;2024-03-29T04:18:52;7.30;99.90
16666;DHT22;8446;50.99880500;6.25021400;2024-03-29T04:21:22;7.20;99.90
16666;DHT22;8446;50.99880500;6.25021400;2024-03-29T04:23:53;7.30;99.90
16666;DHT22;8446;50.99880500;6.25021400;2024-03-29T04:26:23;7.30;99.90
16666;DHT22;8446;50.99880500;6.25021400;2024-03-29T04:28:54;7.20;99.90
16666;DHT22;8446;50.99880500;6.25021400;2024-03-29T04:31:24;7.30;99.90
16666;DHT22;8446;50.99880500;6.25021400;2024-03-29T04:33:55;7.30;99.90
16666;DHT22;8446;50.99880500;6.25021400;2024-03-29T04:36:26;7.30;99.90
16666;DHT22;8446;50.99880500;6.25021400;2024-03-29T04:38:56;7.30;99.90
16666;DHT22;8446;50.99880500;6.25021400;2024-03-29T04:41:27;7.30;99.90
16666;DHT22;8446;50.99880500;6.25021400;2024-03-29T04:43:57;7.60;99.90
16666;DHT22;8446;50.99880500;6.25021400;2024-03-29T04:46:29;7.70;99.90
16666;DHT22;8446;50.99880500;6.25021400;2024-03-29T04:49:00;8.00;99.90
16666;DHT22;8446;50.99880500;6.25021400;2024-03-29T04:51:31;8.10;99.90
16666;DHT22;8446;50.99880500;6.25021400;2024-03-29T04:54:01;8.20;99.90
16666;DHT22;8446;50.99880500;6.25021400;2024-03-29T04:56:32;8.20;99.90
16666;DHT22;8446;50.99880500;6.25021400;2024-03-29T04:59:02;8.20;99.90
16666;DHT22;8446;50.99880500;6.25021400;2024-03-29T05:01:33;8.00;99.90
16666;DHT22;8446;50.99880500;6.25021400;2024-03-29T05:04:05;7.90;99.90
16666;DHT22;8446;50.99880500;6.25021400;2024-03-29T05:06:36;8.00;99.90
16666;DHT22;8446;50.99880500;6.25021400;2024-03-29T05:09:07;8.00;99.90
16666;DHT22;8446;50.99880500;6.25021400;2024-03-29T05:11:37;7.90;99.90
16666;DHT22;8446;50.99880500;6.25021400;2024-03-29T05:14:08;7.80;99.90
16666;DHT22;8446;50.99880500;6.25021400;2024-03-29T05:16:43;7.80;99.90
16666;DHT22;8446;50.99880500;6.25021400;2024-03-29T05:19:15;8.00;99.90
16666;DHT22;8446;50.99880500;6.25021400;2024-03-29T05:21:45;7.90;99.90
16666;DHT22;8446;50.99880500;6.25021400;2024-03-29T05:24:17;7.80;99.90
16666;DHT22;8446;50.99880500;6.25021400;2024-03-29T05:26:47;7.80;99.90
16666;DHT22;8446;50.99880500;6.25021400;2024-03-29T05:29:18;7.90;99.90
16666;DHT22;8446;50.99880500;6.25021400;2024-03-29T05:31:49;7.90;99.90
16666;DHT22;8446;50.99880500;6.25021400;2024-03-29T05:34:19;7.90;99.90
16666;DHT22;8446;50.99880500;6.25021400;2024-03-29T05:36:50;7.90;99.90
16666;DHT22;8446;50.99880500;6.25021400;2024-03-29T05:39:20;7.80;99.90
16666;DHT22;8446;50.99880500;6.25021400;2024-03-29T05:41:51;7.80;99.90
16666;DHT22;8446;50.99880500;6.25021400;2024-03-29T05:44:21;7.70;99.90
16666;DHT22;8446;50.99880500;6.25021400;2024-03-29T05:46:52;7.70;99.90
16666;DHT22;8446;50.99880500;6.25021400;2024-03-29T05:49:22;7.50;99.90
16666;DHT22;8446;50.99880500;6.25021400;2024-03-29T05:51:53;7.50;99.90
16666;DHT22;8446;50.99880500;6.25021400;2024-03-29T05:54:23;7.50;99.90
16666;DHT22;8446;50.99880500;6.25021400;2024-03-29T05:56:55;7.50;99.90
16666;DHT22;8446;50.99880500;6.25021400;2024-03-29T05:59:25;7.50;99.90
16666;DHT22;8446;50.99880500;6.25021400;2024-03-29T06:01:56;7.40;99.90
16666;DHT22;8446;50.99880500;6.25021400;2024-03-29T06:04:26;7.30;99.90
16666;DHT22;8446;50.99880500;6.25021400;2024-03-29T06:07:04;7.20;99.90
16666;DHT22;8446;50.99880500;6.25021400;2024-03-29T06:09:35;7.30;99.90
16666;DHT22;8446;50.99880500;6.25021400;2024-03-29T06:12:05;7.30;99.90
16666;DHT22;8446;50.99880500;6.25021400;2024-03-29T06:14:38;7.40;99.90
16666;DHT22;8446;50.99880500;6.25021400;2024-03-29T06:17:27;7.30;99.90
16666;DHT22;8446;50.99880500;6.25021400;2024-03-29T06:19:58;7.30;99.90
16666;DHT22;8446;50.99880500;6.25021400;2024-03-29T06:22:30;7.30;99.90
16666;DHT22;8446;50.99880500;6.25021400;2024-03-29T06:25:01;7.30;99.90
16666;DHT22;8446;50.99880500;6.25021400;2024-03-29T06:27:38;7.30;99.90
16666;DHT22;8446;50.99880500;6.25021400;2024-03-29T06:30:10;7.40;99.90
16666;DHT22;8446;50.99880500;6.25021400;2024-03-29T06:32:40;7.40;99.90
16666;DHT22;8446;50.99880500;6.25021400;2024-03-29T06:35:14;7.50;99.90
16666;DHT22;8446;50.99880500;6.25021400;2024-03-29T06:37:44;7.40;99.90
16666;DHT22;8446;50.99880500;6.25021400;2024-03-29T06:40:15;7.50;99.90
16666;DHT22;8446;50.99880500;6.25021400;2024-03-29T06:42:45;7.50;99.90
16666;DHT22;8446;50.99880500;6.25021400;2024-03-29T06:45:16;7.60;99.90
16666;DHT22;8446;50.99880500;6.25021400;2024-03-29T06:47:47;7.60;99.90
16666;DHT22;8446;50.99880500;6.25021400;2024-03-29T06:50:17;7.70;99.90
16666;DHT22;8446;50.99880500;6.25021400;2024-03-29T06:52:48;7.70;99.90
16666;DHT22;8446;50.99880500;6.25021400;2024-03-29T06:55:18;7.60;99.90
16666;DHT22;8446;50.99880500;6.25021400;2024-03-29T06:57:49;7.70;99.90
16666;DHT22;8446;50.99880500;6.25021400;2024-03-29T07:00:20;7.80;99.90
16666;DHT22;8446;50.99880500;6.25021400;2024-03-29T07:02:51;7.90;99.90
16666;DHT22;8446;50.99880500;6.25021400;2024-03-29T07:05:23;8.10;99.90
16666;DHT22;8446;50.99880500;6.25021400;2024-03-29T07:07:53;8.20;99.90
16666;DHT22;8446;50.99880500;6.25021400;2024-03-29T07:10:24;8.50;99.90
16666;DHT22;8446;50.99880500;6.25021400;2024-03-29T07:12:55;8.80;99.90
16666;DHT22;8446;50.99880500;6.25021400;2024-03-29T07:15:25;9.00;99.90
16666;DHT22;8446;50.99880500;6.25021400;2024-03-29T07:17:56;9.20;99.90
16666;DHT22;8446;50.99880500;6.25021400;2024-03-29T07:20:29;9.30;99.90
16666;DHT22;8446;50.99880500;6.25021400;2024-03-29T07:22:59;9.50;99.90
16666;DHT22;8446;50.99880500;6.25021400;2024-03-29T07:25:30;9.60;99.90
16666;DHT22;8446;50.99880500;6.25021400;2024-03-29T07:28:00;9.60;99.90
16666;DHT22;8446;50.99880500;6.25021400;2024-03-29T07:30:31;9.60;99.90
16666;DHT22;8446;50.99880500;6.25021400;2024-03-29T07:33:02;9.60;99.90
16666;DHT22;8446;50.99880500;6.25021400;2024-03-29T07:35:32;9.70;99.90
16666;DHT22;8446;50.99880500;6.25021400;2024-03-29T07:38:03;9.80;99.90
16666;DHT22;8446;50.99880500;6.25021400;2024-03-29T07:40:34;9.80;99.90
16666;DHT22;8446;50.99880500;6.25021400;2024-03-29T07:43:05;9.80;99.90
16666;DHT22;8446;50.99880500;6.25021400;2024-03-29T07:45:35;9.80;99.90
16666;DHT22;8446;50.99880500;6.25021400;2024-03-29T07:48:06;9.80;99.90
16666;DHT22;8446;50.99880500;6.25021400;2024-03-29T07:50:37;9.80;99.90
16666;DHT22;8446;50.99880500;6.25021400;2024-03-29T07:53:07;9.80;99.90
16666;DHT22;8446;50.99880500;6.25021400;2024-03-29T07:55:39;9.90;99.90
16666;DHT22;8446;50.99880500;6.25021400;2024-03-29T07:58:11;9.90;99.90
16666;DHT22;8446;50.99880500;6.25021400;2024-03-29T08:00:42;10.00;99.90
16666;DHT22;8446;50.99880500;6.25021400;2024-03-29T08:03:13;10.00;99.90
16666;DHT22;8446;50.99880500;6.25021400;2024-03-29T08:06:00;10.00;99.90
16666;DHT22;8446;50.99880500;6.25021400;2024-03-29T08:08:34;10.10;99.90
16666;DHT22;8446;50.99880500;6.25021400;2024-03-29T08:11:05;10.10;99.90
16666;DHT22;8446;50.99880500;6.25021400;2024-03-29T08:13:35;10.30;99.90
16666;DHT22;8446;50.99880500;6.25021400;2024-03-29T08:16:06;10.40;99.90
16666;DHT22;8446;50.99880500;6.25021400;2024-03-29T08:18:37;10.60;99.90
16666;DHT22;8446;50.99880500;6.25021400;2024-03-29T08:21:08;10.70;99.90
16666;DHT22;8446;50.99880500;6.25021400;2024-03-29T08:23:41;10.80;99.90
16666;DHT22;8446;50.99880500;6.25021400;2024-03-29T08:26:15;10.90;99.90
16666;DHT22;8446;50.99880500;6.25021400;2024-03-29T08:28:46;11.00;99.90
16666;DHT22;8446;50.99880500;6.25021400;2024-03-29T08:31:16;11.20;99.90
16666;DHT22;8446;50.99880500;6.25021400;2024-03-29T08:33:47;11.20;99.90
16666;DHT22;8446;50.99880500;6.25021400;2024-03-29T08:36:18;11.20;99.90
16666;DHT22;8446;50.99880500;6.25021400;2024-03-29T08:38:49;11.30;99.90
16666;DHT22;8446;50.99880500;6.25021400;2024-03-29T08:41:19;11.50;99.90
16666;DHT22;8446;50.99880500;6.25021400;2024-03-29T08:43:50;11.50;99.90
16666;DHT22;8446;50.99880500;6.25021400;2024-03-29T08:46:20;11.70;99.90
16666;DHT22;8446;50.99880500;6.25021400;2024-03-29T08:48:51;11.80;99.90
16666;DHT22;8446;50.99880500;6.25021400;2024-03-29T08:51:21;11.80;99.90
16666;DHT22;8446;50.99880500;6.25021400;2024-03-29T08:53:52;11.90;99.90
16666;DHT22;8446;50.99880500;6.25021400;2024-03-29T08:56:22;12.10;99.90
16666;DHT22;8446;50.99880500;6.25021400;2024-03-29T08:58:53;12.20;99.90
16666;DHT22;8446;50.99880500;6.25021400;2024-03-29T09:01:23;12.20;99.90
16666;DHT22;8446;50.99880500;6.25021400;2024-03-29T09:03:54;12.40;99.90
16666;DHT22;8446;50.99880500;6.25021400;2024-03-29T09:06:24;12.60;99.90
16666;DHT22;8446;50.99880500;6.25021400;2024-03-29T09:08:55;12.70;99.90
16666;DHT22;8446;50.99880500;6.25021400;2024-03-29T09:11:26;13.00;99.90
16666;DHT22;8446;50.99880500;6.25021400;2024-03-29T09:13:56;13.00;99.90
16666;DHT22;8446;50.99880500;6.25021400;2024-03-29T09:16:28;13.10;99.90
16666;DHT22;8446;50.99880500;6.25021400;2024-03-29T09:19:00;13.10;99.90
16666;DHT22;8446;50.99880500;6.25021400;2024-03-29T09:21:31;13.00;99.90
16666;DHT22;8446;50.99880500;6.25021400;2024-03-29T09:24:01;13.00;99.90
16666;DHT22;8446;50.99880500;6.25021400;2024-03-29T09:26:33;13.10;99.90
16666;DHT22;8446;50.99880500;6.25021400;2024-03-29T09:29:03;13.20;99.90
16666;DHT22;8446;50.99880500;6.25021400;2024-03-29T09:31:34;13.40;99.90
16666;DHT22;8446;50.99880500;6.25021400;2024-03-29T09:34:05;13.30;99.90
16666;DHT22;8446;50.99880500;6.25021400;2024-03-29T09:36:36;13.30;99.90
16666;DHT22;8446;50.99880500;6.25021400;2024-03-29T09:39:06;13.20;99.90
16666;DHT22;8446;50.99880500;6.25021400;2024-03-29T09:41:40;13.20;99.90
16666;DHT22;8446;50.99880500;6.25021400;2024-03-29T09:44:15;13.30;99.90
16666;DHT22;8446;50.99880500;6.25021400;2024-03-29T09:46:45;13.60;99.90
16666;DHT22;8446;50.99880500;6.25021400;2024-03-29T09:49:16;13.70;99.90
16666;DHT22;8446;50.99880500;6.25021400;2024-03-29T09:51:47;13.80;99.90
16666;DHT22;8446;50.99880500;6.25021400;2024-03-29T09:54:18;13.60;99.90
16666;DHT22;8446;50.99880500;6.25021400;2024-03-29T09:56:50;13.60;99.90
16666;DHT22;8446;50.99880500;6.25021400;2024-03-29T09:59:20;13.50;99.90
16666;DHT22;8446;50.99880500;6.25021400;2024-03-29T10:01:51;13.50;99.90
16666;DHT22;8446;50.99880500;6.25021400;2024-03-29T10:04:24;13.40;99.90
16666;DHT22;8446;50.99880500;6.25021400;2024-03-29T10:06:55;13.30;99.90
16666;DHT22;8446;50.99880500;6.25021400;2024-03-29T10:09:26;13.50;99.90
16666;DHT22;8446;50.99880500;6.25021400;2024-03-29T10:11:59;13.40;99.90
16666;DHT22;8446;50.99880500;6.25021400;2024-03-29T10:14:31;13.50;99.90
16666;DHT22;8446;50.99880500;6.25021400;2024-03-29T10:17:01;13.60;99.90
16666;DHT22;8446;50.99880500;6.25021400;2024-03-29T10:19:32;13.70;99.90
16666;DHT22;8446;50.99880500;6.25021400;2024-03-29T10:22:07;13.60;99.90
16666;DHT22;8446;50.99880500;6.25021400;2024-03-29T10:24:37;13.70;99.90
16666;DHT22;8446;50.99880500;6.25021400;2024-03-29T10:27:08;13.70;99.90
16666;DHT22;8446;50.99880500;6.25021400;2024-03-29T10:29:40;13.70;99.90
16666;DHT22;8446;50.99880500;6.25021400;2024-03-29T10:32:10;14.00;99.90
16666;DHT22;8446;50.99880500;6.25021400;2024-03-29T10:34:41;14.20;99.90
16666;DHT22;8446;50.99880500;6.25021400;2024-03-29T10:37:12;14.50;99.90
16666;DHT22;8446;50.99880500;6.25021400;2024-03-29T10:39:43;14.40;99.90
16666;DHT22;8446;50.99880500;6.25021400;2024-03-29T10:42:13;14.50;99.90
16666;DHT22;8446;50.99880500;6.25021400;2024-03-29T10:44:45;14.30;99.90
16666;DHT22;8446;50.99880500;6.25021400;2024-03-29T10:47:19;14.30;99.90
16666;DHT22;8446;50.99880500;6.25021400;2024-03-29T10:49:51;14.50;99.90
16666;DHT22;8446;50.99880500;6.25021400;2024-03-29T10:52:21;14.50;99.90
16666;DHT22;8446;50.99880500;6.25021400;2024-03-29T10:54:53;14.20;99.90
16666;DHT22;8446;50.99880500;6.25021400;2024-03-29T10:57:27;14.00;99.90
16666;DHT22;8446;50.99880500;6.25021400;2024-03-29T11:00:03;14.10;99.90
16666;DHT22;8446;50.99880500;6.25021400;2024-03-29T11:02:42;14.20;99.90
16666;DHT22;8446;50.99880500;6.25021400;2024-03-29T11:05:16;14.10;99.90
16666;DHT22;8446;50.99880500;6.25021400;2024-03-29T11:07:48;14.10;99.90
16666;DHT22;8446;50.99880500;6.25021400;2024-03-29T11:10:28;14.20;99.90
16666;DHT22;8446;50.99880500;6.25021400;2024-03-29T11:15:55;14.50;99.90
16666;DHT22;8446;50.99880500;6.25021400;2024-03-29T11:18:27;14.80;99.90
16666;DHT22;8446;50.99880500;6.25021400;2024-03-29T11:20:58;14.70;99.90
16666;DHT22;8446;50.99880500;6.25021400;2024-03-29T11:23:30;14.60;99.90
16666;DHT22;8446;50.99880500;6.25021400;2024-03-29T11:26:00;14.50;99.90
16666;DHT22;8446;50.99880500;6.25021400;2024-03-29T11:28:34;14.50;99.90
16666;DHT22;8446;50.99880500;6.25021400;2024-03-29T11:31:08;14.70;99.90
16666;DHT22;8446;50.99880500;6.25021400;2024-03-29T11:36:22;14.70;99.90
16666;DHT22;8446;50.99880500;6.25021400;2024-03-29T11:38:58;14.80;99.90
16666;DHT22;8446;50.99880500;6.25021400;2024-03-29T11:41:28;14.90;99.90
16666;DHT22;8446;50.99880500;6.25021400;2024-03-29T11:44:00;15.10;99.90
16666;DHT22;8446;50.99880500;6.25021400;2024-03-29T11:46:31;15.00;99.90
16666;DHT22;8446;50.99880500;6.25021400;2024-03-29T11:49:06;14.80;99.90
16666;DHT22;8446;50.99880500;6.25021400;2024-03-29T11:51:36;14.70;99.90
16666;DHT22;8446;50.99880500;6.25021400;2024-03-29T11:54:07;14.50;99.90
16666;DHT22;8446;50.99880500;6.25021400;2024-03-29T11:56:37;14.30;99.90
16666;DHT22;8446;50.99880500;6.25021400;2024-03-29T11:59:08;14.20;99.90
16666;DHT22;8446;50.99880500;6.25021400;2024-03-29T12:01:40;14.10;99.90
16666;DHT22;8446;50.99880500;6.25021400;2024-03-29T12:04:22;14.10;99.90
16666;DHT22;8446;50.99880500;6.25021400;2024-03-29T12:06:53;14.00;99.90
16666;DHT22;8446;50.99880500;6.25021400;2024-03-29T12:09:23;14.20;99.90
16666;DHT22;8446;50.99880500;6.25021400;2024-03-29T12:11:54;14.20;99.90
16666;DHT22;8446;50.99880500;6.25021400;2024-03-29T12:14:24;14.30;99.90
16666;DHT22;8446;50.99880500;6.25021400;2024-03-29T12:16:57;14.40;99.90
16666;DHT22;8446;50.99880500;6.25021400;2024-03-29T12:19:27;14.40;99.90
16666;DHT22;8446;50.99880500;6.25021400;2024-03-29T12:21:58;14.30;99.90
16666;DHT22;8446;50.99880500;6.25021400;2024-03-29T12:24:29;14.40;99.90
16666;DHT22;8446;50.99880500;6.25021400;2024-03-29T12:26:59;14.40;99.90
16666;DHT22;8446;50.99880500;6.25021400;2024-03-29T12:29:30;14.40;99.90
16666;DHT22;8446;50.99880500;6.25021400;2024-03-29T12:32:01;14.20;99.90
16666;DHT22;8446;50.99880500;6.25021400;2024-03-29T12:34:32;14.30;99.90
16666;DHT22;8446;50.99880500;6.25021400;2024-03-29T12:37:02;14.50;99.90
16666;DHT22;8446;50.99880500;6.25021400;2024-03-29T12:39:34;14.60;99.90
16666;DHT22;8446;50.99880500;6.25021400;2024-03-29T12:42:06;14.90;99.90
16666;DHT22;8446;50.99880500;6.25021400;2024-03-29T12:44:37;15.10;99.90
16666;DHT22;8446;50.99880500;6.25021400;2024-03-29T12:47:07;15.60;99.90
16666;DHT22;8446;50.99880500;6.25021400;2024-03-29T12:49:40;15.70;99.90
16666;DHT22;8446;50.99880500;6.25021400;2024-03-29T12:52:12;15.60;99.90
16666;DHT22;8446;50.99880500;6.25021400;2024-03-29T12:54:42;15.80;99.90
16666;DHT22;8446;50.99880500;6.25021400;2024-03-29T12:57:13;15.90;99.90
16666;DHT22;8446;50.99880500;6.25021400;2024-03-29T12:59:44;15.90;99.90
16666;DHT22;8446;50.99880500;6.25021400;2024-03-29T13:02:16;15.80;99.90
16666;DHT22;8446;50.99880500;6.25021400;2024-03-29T13:04:47;15.80;99.90
16666;DHT22;8446;50.99880500;6.25021400;2024-03-29T13:07:18;16.10;99.90
16666;DHT22;8446;50.99880500;6.25021400;2024-03-29T13:09:48;15.60;99.90
16666;DHT22;8446;50.99880500;6.25021400;2024-03-29T13:12:19;16.00;99.90
16666;DHT22;8446;50.99880500;6.25021400;2024-03-29T13:14:49;16.30;99.90
16666;DHT22;8446;50.99880500;6.25021400;2024-03-29T13:17:20;15.90;99.90
16666;DHT22;8446;50.99880500;6.25021400;2024-03-29T13:19:50;16.00;99.90
16666;DHT22;8446;50.99880500;6.25021400;2024-03-29T13:22:21;16.40;99.90
16666;DHT22;8446;50.99880500;6.25021400;2024-03-29T13:24:52;16.50;99.90
16666;DHT22;8446;50.99880500;6.25021400;2024-03-29T13:27:22;16.30;99.90
16666;DHT22;8446;50.99880500;6.25021400;2024-03-29T13:29:53;16.10;99.90
16666;DHT22;8446;50.99880500;6.25021400;2024-03-29T13:32:23;16.20;99.90
16666;DHT22;8446;50.99880500;6.25021400;2024-03-29T13:34:54;16.60;99.90
16666;DHT22;8446;50.99880500;6.25021400;2024-03-29T13:37:25;16.50;99.90
16666;DHT22;8446;50.99880500;6.25021400;2024-03-29T13:39:57;16.50;99.90
16666;DHT22;8446;50.99880500;6.25021400;2024-03-29T13:42:28;16.80;99.90
16666;DHT22;8446;50.99880500;6.25021400;2024-03-29T13:44:58;16.50;99.90
16666;DHT22;8446;50.99880500;6.25021400;2024-03-29T13:47:29;16.50;99.90
16666;DHT22;8446;50.99880500;6.25021400;2024-03-29T13:50:00;16.30;99.90
16666;DHT22;8446;50.99880500;6.25021400;2024-03-29T13:52:31;15.80;99.90
16666;DHT22;8446;50.99880500;6.25021400;2024-03-29T13:55:02;16.00;99.90
16666;DHT22;8446;50.99880500;6.25021400;2024-03-29T13:57:36;15.80;99.90
16666;DHT22;8446;50.99880500;6.25021400;2024-03-29T14:00:08;15.80;99.90
16666;DHT22;8446;50.99880500;6.25021400;2024-03-29T14:02:38;15.80;99.90
16666;DHT22;8446;50.99880500;6.25021400;2024-03-29T14:05:09;16.20;99.90
16666;DHT22;8446;50.99880500;6.25021400;2024-03-29T14:07:39;16.90;99.90
16666;DHT22;8446;50.99880500;6.25021400;2024-03-29T14:10:10;16.90;99.90